TimeCST,TemperatureF,Dew PointF,Humidity,Sea Level PressureIn,VisibilityMPH,Wind Direction,Wind SpeedMPH,Gust SpeedMPH,PrecipitationIn,Events,Conditions,WindDirDegrees,DateUTC
12:53 AM,39.2,37.4,93,30.42,5.0,NNW,4.6,-,N/A,,Clear,340,2011-12-17 06:53:00
1:53 AM,39.0,36.0,89,30.43,10.0,Calm,Calm,-,N/A,,Clear,0,2011-12-17 07:53:00
2:53 AM,37.9,35.1,89,30.44,9.0,North,3.5,-,N/A,,Clear,350,2011-12-17 08:53:00
3:53 AM,37.0,34.0,89,30.44,7.0,Calm,Calm,-,N/A,,Clear,0,2011-12-17 09:53:00
4:53 AM,36.0,33.1,89,30.44,9.0,Calm,Calm,-,N/A,,Clear,0,2011-12-17 10:53:00
5:53 AM,34.0,32.0,92,30.45,5.0,North,4.6,-,N/A,,Clear,360,2011-12-17 11:53:00
6:53 AM,34.0,32.0,92,30.48,7.0,Calm,Calm,-,N/A,,Clear,0,2011-12-17 12:53:00
7:53 AM,35.1,32.0,89,30.49,6.0,Calm,Calm,-,N/A,,Clear,0,2011-12-17 13:53:00
8:53 AM,39.9,35.1,83,30.50,8.0,NNE,3.5,-,N/A,,Clear,30,2011-12-17 14:53:00
9:53 AM,44.1,37.9,79,30.51,8.0,Calm,Calm,-,N/A,,Clear,0,2011-12-17 15:53:00
10:53 AM,48.9,37.9,66,30.51,10.0,Calm,Calm,-,N/A,,Clear,0,2011-12-17 16:53:00
11:53 AM,52.0,37.9,59,30.48,10.0,Calm,Calm,-,N/A,,Clear,0,2011-12-17 17:53:00
12:53 PM,55.0,37.9,53,30.45,10.0,Variable,5.8,-,N/A,,Clear,0,2011-12-17 18:53:00
1:53 PM,57.0,36.0,45,30.43,10.0,NNW,8.1,-,N/A,,Clear,340,2011-12-17 19:53:00
2:53 PM,57.0,35.1,44,30.42,10.0,Calm,Calm,-,N/A,,Clear,0,2011-12-17 20:53:00
3:53 PM,57.9,34.0,41,30.41,10.0,North,5.8,-,N/A,,Clear,10,2011-12-17 21:53:00
4:53 PM,55.9,36.0,47,30.41,10.0,Calm,Calm,-,N/A,,Clear,0,2011-12-17 22:53:00
6:53 PM,46.0,37.0,71,30.43,10.0,Calm,Calm,-,N/A,,Clear,0,2011-12-18 00:53:00
7:53 PM,45.0,37.0,74,30.45,10.0,Calm,Calm,-,N/A,,Clear,0,2011-12-18 01:53:00
8:53 PM,43.0,37.0,80,30.45,10.0,Calm,Calm,-,N/A,,Clear,0,2011-12-18 02:53:00
9:53 PM,41.0,36.0,82,30.45,10.0,Calm,Calm,-,N/A,,Clear,0,2011-12-18 03:53:00
10:53 PM,37.9,36.0,93,30.45,7.0,South,3.5,-,N/A,,Clear,190,2011-12-18 04:53:00
11:53 PM,39.0,36.0,89,30.44,7.0,Calm,Calm,-,N/A,,Clear,0,2011-12-18 05:53:00